Terminal Aerodrome Forecast
Issued by NWS

Home | Current Version | Previous Version | Text Only | Print | Product List | Glossary On
Versions: 1 2 3 4 5 6 7 8 9 10 11 12 13 14 15 16 17 18 19 20
118
FTAK31 PAJN 040652 AAA
TAFAYA
TAF AMD
PAYA 040652Z 0407/0506 10006KT P6SM -SHRA FEW020 BKN040 BKN060
      TEMPO 0407/0410 BKN020 OVC040
     FM041900 14009KT P6SM -SHRA SCT020 BKN040 OVC060
     FM050000 13011KT 6SM -RA BR BKN025 OVC040
     FM050300 13011G17KT 5SM -SHRA BR BKN020 OVC035
      AMD LTD TO CLD VIS AND WIND 0407/0409=

USA.gov is the U.S. government's official web portal to all federal, state and local government web resources and services.